Pilot, Virginia
Current Conditions -  °F | °C
As of 3:35 AM on Sunday 21 Dec 2014 (Local Time) from KBCB Reporting Station
Overcast Overcast  
Wind Chill: 34°   Ceiling: 1400
Heat Index: 34°   Visibility: 10mi
Dew Point: 31°   Wind: 0mph
Humidity: 89%   Direction: NA
Pressure: 30.23"   Gusts: NA
Location:  37.05°N, 80.36°W
Report Text: KBCB 210835Z AUTO 00000KT 10SM BKN014 OVC036 01/M01 A3023 RMK AO2 T00101007
Loading
Personal Weather Stations






























Interactive Weather Map New forecast layout! Learn more

10-Day Weather Forecast

Advertisements
Track Severe Weather on mobile